createdAt,value
2023-08-14T00:00:12.827Z,62.09
2023-08-14T00:02:43.433Z,62.64
2023-08-14T00:05:11.147Z,62.69
2023-08-14T00:07:38.631Z,61.92
2023-08-14T00:10:06.428Z,61.03
2023-08-14T00:12:33.820Z,62.06
2023-08-14T00:15:01.220Z,61.69
2023-08-14T00:17:28.884Z,62.44
2023-08-14T00:19:56.380Z,62.33
2023-08-14T00:22:23.678Z,61.78
2023-08-14T00:24:51.245Z,62.28
2023-08-14T00:27:18.683Z,62.30
2023-08-14T00:29:46.740Z,62.43
2023-08-14T00:32:14.207Z,62.65
2023-08-14T00:34:41.596Z,62.75
2023-08-14T00:37:09.108Z,62.47
2023-08-14T00:39:36.716Z,62.65
2023-08-14T00:42:04.425Z,62.75
2023-08-14T00:44:31.890Z,62.66
2023-08-14T00:46:59.748Z,62.34
2023-08-14T00:49:27.377Z,62.47
2023-08-14T00:51:54.867Z,61.50
2023-08-14T00:54:22.755Z,62.23
2023-08-14T00:56:50.352Z,62.63
2023-08-14T00:59:17.994Z,62.56
2023-08-14T01:01:45.816Z,62.73
2023-08-14T01:04:13.368Z,62.91
2023-08-14T01:06:40.894Z,62.86
2023-08-14T01:09:08.402Z,61.86
2023-08-14T01:12:17.063Z,61.00
2023-08-14T01:14:49.346Z,62.15
2023-08-14T01:17:19.423Z,62.38
2023-08-14T01:19:54.199Z,62.71
2023-08-14T01:22:34.725Z,62.53
2023-08-14T01:25:19.376Z,62.58
2023-08-14T01:27:48.298Z,62.41
2023-08-14T01:30:16.002Z,62.84
2023-08-14T01:32:46.629Z,63.31
2023-08-14T01:35:14.927Z,63.45
2023-08-14T01:37:50.087Z,63.21
2023-08-14T01:40:37.872Z,63.25
2023-08-14T01:43:10.303Z,62.49
2023-08-14T01:45:42.832Z,62.33
2023-08-14T01:48:12.799Z,61.08
2023-08-14T01:50:41.500Z,60.82
2023-08-14T01:53:12.313Z,62.77
2023-08-14T01:55:41.126Z,61.13
2023-08-14T01:58:08.530Z,62.98
2023-08-14T02:00:37.725Z,63.86
2023-08-14T02:03:05.706Z,63.72
2023-08-14T02:05:33.244Z,62.70
2023-08-14T02:08:04.270Z,62.24
2023-08-14T02:10:31.781Z,62.10
2023-08-14T02:12:59.488Z,61.63
2023-08-14T02:15:26.994Z,61.28
2023-08-14T02:17:54.787Z,61.50
2023-08-14T02:20:22.307Z,62.96
2023-08-14T02:22:49.645Z,61.76
2023-08-14T02:25:17.236Z,61.67
2023-08-14T02:27:44.585Z,64.06
2023-08-14T02:30:12.344Z,64.27
2023-08-14T02:32:39.965Z,64.33
2023-08-14T02:35:07.744Z,64.43
2023-08-14T02:37:35.305Z,64.79
2023-08-14T02:40:03.077Z,64.69
2023-08-14T02:42:30.623Z,64.46
2023-08-14T02:44:58.184Z,64.63
2023-08-14T02:47:25.765Z,65.00
2023-08-14T02:49:54.419Z,63.68
2023-08-14T02:52:21.768Z,64.55
2023-08-14T02:54:49.498Z,63.92
2023-08-14T02:57:17.000Z,62.95
2023-08-14T02:59:44.428Z,60.67
2023-08-14T03:02:12.130Z,59.44
2023-08-14T03:04:39.501Z,58.66
2023-08-14T03:07:07.045Z,57.98
2023-08-14T03:09:34.854Z,58.29
2023-08-14T03:12:02.249Z,58.94
2023-08-14T03:14:29.694Z,59.04
2023-08-14T03:16:57.298Z,58.35
2023-08-14T03:19:24.818Z,57.78
2023-08-14T03:21:53.367Z,57.70
2023-08-14T03:24:20.906Z,58.47
2023-08-14T03:26:48.402Z,59.15
2023-08-14T03:29:17.138Z,61.18
2023-08-14T03:31:44.868Z,62.49
2023-08-14T03:34:12.431Z,62.68
2023-08-14T03:36:39.820Z,61.78
2023-08-14T03:39:07.749Z,61.22
2023-08-14T03:41:35.256Z,61.83
2023-08-14T03:44:03.959Z,60.75
2023-08-14T03:46:32.642Z,61.92
2023-08-14T03:49:00.077Z,61.26
2023-08-14T03:51:27.587Z,61.46
2023-08-14T03:54:02.138Z,61.91
2023-08-14T03:56:29.526Z,62.03
2023-08-14T03:59:00.644Z,62.04
2023-08-14T04:01:28.221Z,61.90
2023-08-14T04:03:55.871Z,61.81
2023-08-14T04:06:23.378Z,61.42
2023-08-14T04:08:51.120Z,60.75
2023-08-14T04:11:18.672Z,61.62
2023-08-14T04:13:46.153Z,61.93
2023-08-14T04:16:14.054Z,62.11
2023-08-14T04:18:43.801Z,62.02
2023-08-14T04:21:11.255Z,61.89
2023-08-14T04:23:38.869Z,61.99
2023-08-14T04:26:06.250Z,61.70
2023-08-14T04:28:33.838Z,61.55
2023-08-14T04:31:03.676Z,61.68
2023-08-14T04:33:32.025Z,61.96
2023-08-14T04:35:59.831Z,61.84
2023-08-14T04:38:27.401Z,61.49
2023-08-14T04:40:56.053Z,60.76
2023-08-14T04:43:26.206Z,60.37
2023-08-14T04:45:53.845Z,60.17
2023-08-14T04:48:23.718Z,59.67
2023-08-14T04:50:56.323Z,59.69
2023-08-14T04:53:26.419Z,58.97
2023-08-14T04:55:54.401Z,59.68
2023-08-14T04:58:22.344Z,60.78
2023-08-14T05:00:52.187Z,60.88
2023-08-14T05:03:21.434Z,61.02
2023-08-14T05:05:52.927Z,61.26
2023-08-14T05:08:20.918Z,59.91
2023-08-14T05:10:58.084Z,61.04
2023-08-14T05:13:28.134Z,61.18
2023-08-14T05:16:07.935Z,60.87
2023-08-14T05:18:36.130Z,60.31
2023-08-14T05:21:03.699Z,60.37
2023-08-14T05:23:31.236Z,61.25
2023-08-14T05:26:01.013Z,61.17
2023-08-14T05:28:28.461Z,61.14
2023-08-14T05:30:56.119Z,60.31
2023-08-14T05:33:23.651Z,59.35
2023-08-14T05:35:59.298Z,58.08
2023-08-14T05:38:26.816Z,57.51
2023-08-14T05:40:54.351Z,57.13
2023-08-14T05:43:22.054Z,57.22
2023-08-14T05:45:50.133Z,58.00
2023-08-14T05:48:22.537Z,58.80
2023-08-14T05:50:53.520Z,59.54
2023-08-14T05:53:21.212Z,60.25
2023-08-14T05:55:50.817Z,60.11
2023-08-14T05:58:18.340Z,59.91
2023-08-14T06:00:45.889Z,60.40
2023-08-14T06:03:15.215Z,60.01
2023-08-14T06:05:45.583Z,60.02
2023-08-14T06:08:13.181Z,58.91
2023-08-14T06:10:40.742Z,60.55
2023-08-14T06:13:11.320Z,60.98
2023-08-14T06:15:43.882Z,58.25
2023-08-14T06:18:11.502Z,58.56
2023-08-14T06:20:39.038Z,57.45
2023-08-14T06:23:06.720Z,57.14
2023-08-14T06:25:36.816Z,57.37
2023-08-14T06:28:04.789Z,57.62
2023-08-14T06:30:32.750Z,57.52
2023-08-14T06:33:02.740Z,57.79
2023-08-14T06:35:30.287Z,57.02
2023-08-14T06:37:58.097Z,57.20
2023-08-14T06:40:25.676Z,57.81
2023-08-14T06:42:53.451Z,57.85
2023-08-14T06:45:23.254Z,58.24
2023-08-14T06:47:50.868Z,58.31
2023-08-14T06:50:18.340Z,57.79
2023-08-14T06:52:48.106Z,59.52
2023-08-14T06:55:15.753Z,58.90
2023-08-14T06:57:43.095Z,58.53
2023-08-14T07:00:13.718Z,60.07
2023-08-14T07:02:42.141Z,58.84
2023-08-14T07:05:11.897Z,58.53
2023-08-14T07:07:51.860Z,58.44
2023-08-14T07:10:20.304Z,58.60
2023-08-14T07:12:47.993Z,58.36
2023-08-14T07:15:15.625Z,58.61
2023-08-14T07:17:45.077Z,59.22
2023-08-14T07:20:13.479Z,58.83
2023-08-14T07:22:41.022Z,59.29
2023-08-14T07:25:10.868Z,59.08
2023-08-14T07:27:41.639Z,58.67
2023-08-14T07:30:09.520Z,60.12
2023-08-14T07:32:39.604Z,59.52
2023-08-14T07:35:08.931Z,59.85
2023-08-14T07:37:36.861Z,59.30
2023-08-14T07:40:10.379Z,58.36
2023-08-14T07:42:37.812Z,58.61
2023-08-14T07:45:06.110Z,57.97
2023-08-14T07:47:33.861Z,57.78
2023-08-14T07:50:06.689Z,57.59
2023-08-14T07:52:36.570Z,58.63
2023-08-14T07:55:04.729Z,57.81
2023-08-14T07:57:32.474Z,57.41
2023-08-14T07:59:59.970Z,57.35
2023-08-14T08:02:28.782Z,58.05
2023-08-14T08:04:57.174Z,58.74
2023-08-14T08:07:28.125Z,58.65
2023-08-14T08:09:55.893Z,58.52
2023-08-14T08:12:23.182Z,57.80
2023-08-14T08:14:53.817Z,57.76
2023-08-14T08:17:23.416Z,58.49
2023-08-14T08:19:51.711Z,57.95
2023-08-14T08:22:21.862Z,57.62
2023-08-14T08:24:52.095Z,58.65
2023-08-14T08:27:21.995Z,58.20
2023-08-14T08:29:51.858Z,58.35
2023-08-14T08:32:19.603Z,57.70
2023-08-14T08:34:47.119Z,58.54
2023-08-14T08:37:20.476Z,59.13
2023-08-14T08:39:50.157Z,58.64
2023-08-14T08:42:20.382Z,59.07
2023-08-14T08:44:54.954Z,59.61
2023-08-14T08:47:29.434Z,58.08
2023-08-14T08:49:58.305Z,59.19
2023-08-14T08:52:26.324Z,60.51
2023-08-14T08:54:55.551Z,60.79
2023-08-14T08:57:23.651Z,61.22
2023-08-14T08:59:52.944Z,61.45
2023-08-14T09:02:23.301Z,59.89
2023-08-14T09:04:51.680Z,59.44
2023-08-14T09:07:19.888Z,59.83
2023-08-14T09:09:48.095Z,59.62
2023-08-14T09:12:15.789Z,59.10
2023-08-14T09:15:09.402Z,58.88
2023-08-14T09:17:39.395Z,59.54
2023-08-14T09:22:47.868Z,57.29
2023-08-14T09:25:16.641Z,56.77
2023-08-14T09:27:45.340Z,57.08
2023-08-14T09:30:14.536Z,59.08
2023-08-14T09:32:42.222Z,58.12
2023-08-14T09:35:10.018Z,57.51
2023-08-14T09:37:42.179Z,57.77
2023-08-14T09:40:16.116Z,57.57
2023-08-14T09:42:50.512Z,57.86
2023-08-14T09:45:19.808Z,58.19
2023-08-14T09:47:51.681Z,58.12
2023-08-14T09:50:22.009Z,57.97
2023-08-14T09:52:52.611Z,57.48
2023-08-14T09:55:23.722Z,56.56
2023-08-14T09:57:54.427Z,55.76
2023-08-14T10:00:22.196Z,55.99
2023-08-14T10:02:52.590Z,55.28
2023-08-14T10:05:20.895Z,54.95
2023-08-14T10:07:52.715Z,53.34
2023-08-14T10:10:21.936Z,53.59
2023-08-14T10:12:57.906Z,53.15
2023-08-14T10:15:56.699Z,52.58
2023-08-14T10:18:25.014Z,52.82
2023-08-14T10:20:57.625Z,51.67
2023-08-14T10:23:28.771Z,51.83
2023-08-14T10:25:57.684Z,51.38
2023-08-14T10:28:25.984Z,51.33
2023-08-14T10:30:54.004Z,51.53
2023-08-14T10:33:22.132Z,50.48
2023-08-14T10:35:58.506Z,50.19
2023-08-14T10:38:43.568Z,50.11
2023-08-14T10:41:11.275Z,49.69
2023-08-14T10:43:39.000Z,49.41
2023-08-14T10:46:16.076Z,49.89
2023-08-14T10:48:45.866Z,50.35
2023-08-14T10:51:21.772Z,49.81
2023-08-14T10:53:51.839Z,49.81
2023-08-14T10:56:21.697Z,49.29
2023-08-14T10:58:52.012Z,49.74
2023-08-14T11:01:19.816Z,48.61
2023-08-14T11:04:06.776Z,48.49
2023-08-14T11:07:10.530Z,49.07
2023-08-14T11:09:39.640Z,49.45
2023-08-14T11:12:09.545Z,48.73
2023-08-14T11:14:39.830Z,49.17
2023-08-14T11:17:09.189Z,49.76
2023-08-14T11:19:39.912Z,49.71
2023-08-14T11:22:10.477Z,49.11
2023-08-14T11:24:38.778Z,49.62
2023-08-14T11:27:06.736Z,49.28
2023-08-14T11:29:36.095Z,48.77
2023-08-14T11:32:03.724Z,49.30
2023-08-14T11:34:38.271Z,49.23
2023-08-14T11:37:07.934Z,48.61
2023-08-14T11:39:37.359Z,49.77
2023-08-14T11:42:05.745Z,49.20
2023-08-14T11:44:36.595Z,49.70
2023-08-14T11:47:05.316Z,50.25
2023-08-14T11:49:37.226Z,49.52
2023-08-14T11:52:05.219Z,48.93
2023-08-14T11:54:36.568Z,48.85
2023-08-14T11:57:08.795Z,48.56
2023-08-14T11:59:37.073Z,48.67
2023-08-14T12:02:04.804Z,48.35
2023-08-14T12:04:33.241Z,48.55
2023-08-14T12:07:00.765Z,48.82
2023-08-14T12:09:31.744Z,48.35
2023-08-14T12:12:01.658Z,49.97
2023-08-14T12:14:39.652Z,50.85
2023-08-14T12:17:17.184Z,50.11
2023-08-14T12:19:54.043Z,49.64
2023-08-14T12:22:27.033Z,49.90
2023-08-14T12:24:56.562Z,49.25
2023-08-14T12:27:33.142Z,48.88
2023-08-14T12:30:01.043Z,49.49
2023-08-14T12:32:28.797Z,49.99
2023-08-14T12:34:58.683Z,49.50
2023-08-14T12:37:28.832Z,49.70
2023-08-14T12:39:57.058Z,50.45
2023-08-14T12:42:24.691Z,52.97
2023-08-14T12:44:54.129Z,51.96
2023-08-14T12:47:22.149Z,51.16
2023-08-14T12:49:49.778Z,51.67
2023-08-14T12:52:19.471Z,51.91
2023-08-14T12:54:56.376Z,51.88
2023-08-14T12:57:26.313Z,51.34
2023-08-14T13:04:54.810Z,53.88
2023-08-14T13:07:24.484Z,53.82
2023-08-14T13:09:54.290Z,53.39
2023-08-14T13:12:21.829Z,54.35
2023-08-14T13:14:49.134Z,54.13
2023-08-14T13:17:17.280Z,52.87
2023-08-14T13:19:45.268Z,52.77
2023-08-14T13:22:17.211Z,53.89
2023-08-14T13:24:46.059Z,53.62
2023-08-14T13:27:15.914Z,53.83
2023-08-14T13:29:45.767Z,55.42
2023-08-14T13:32:15.852Z,54.52
2023-08-14T13:34:43.242Z,54.33
2023-08-14T13:37:10.703Z,53.74
2023-08-14T13:39:38.170Z,53.45
2023-08-14T13:42:05.689Z,53.44
2023-08-14T13:44:33.095Z,53.65
2023-08-14T13:47:02.506Z,53.59
2023-08-14T13:49:31.943Z,55.72
2023-08-14T13:51:59.266Z,55.39
2023-08-14T13:54:26.872Z,54.01
2023-08-14T13:56:55.158Z,53.57
2023-08-14T13:59:22.816Z,53.66
2023-08-14T14:01:50.454Z,53.55
2023-08-14T14:04:17.758Z,53.52
2023-08-14T14:06:45.221Z,53.83
2023-08-14T14:09:12.740Z,54.35
2023-08-14T14:11:40.114Z,54.29
2023-08-14T14:14:07.550Z,53.40
2023-08-14T14:16:58.859Z,54.03
2023-08-14T14:19:27.830Z,54.28
2023-08-14T14:21:59.587Z,54.04
2023-08-14T14:24:27.631Z,54.21
2023-08-14T14:26:55.061Z,54.55
2023-08-14T14:29:22.413Z,54.09
2023-08-14T14:31:49.928Z,54.73
2023-08-14T14:34:17.461Z,54.70
2023-08-14T14:36:45.087Z,55.03
2023-08-14T14:39:19.157Z,54.33
2023-08-14T14:41:48.760Z,54.55
2023-08-14T14:44:16.324Z,55.29
2023-08-14T14:46:43.974Z,55.22
2023-08-14T14:49:11.482Z,54.58
2023-08-14T14:51:39.014Z,53.84
2023-08-14T14:54:09.127Z,53.66
2023-08-14T14:56:36.641Z,53.52
2023-08-14T14:59:04.361Z,53.55
2023-08-14T15:01:31.771Z,53.89
2023-08-14T15:03:59.474Z,53.52
2023-08-14T15:06:27.146Z,53.89
2023-08-14T15:08:54.703Z,54.04
2023-08-14T15:11:24.895Z,54.04
2023-08-14T15:13:52.391Z,55.37
2023-08-14T15:16:19.936Z,55.51
2023-08-14T15:18:47.374Z,54.81
2023-08-14T15:21:16.074Z,54.91
2023-08-14T15:23:45.664Z,54.37
2023-08-14T15:26:13.114Z,53.90
2023-08-14T15:28:40.755Z,54.59
2023-08-14T15:31:08.624Z,54.49
2023-08-14T15:33:38.319Z,54.56
2023-08-14T15:36:07.211Z,55.49
2023-08-14T15:38:34.621Z,55.00
2023-08-14T15:41:07.797Z,55.12
2023-08-14T15:43:38.015Z,55.47
2023-08-14T15:46:05.515Z,55.38
2023-08-14T15:48:33.115Z,56.52
2023-08-14T15:51:02.757Z,56.95
2023-08-14T15:53:30.286Z,58.44
2023-08-14T15:56:05.158Z,57.04
2023-08-14T15:58:34.847Z,56.40
2023-08-14T16:01:02.378Z,57.27
2023-08-14T16:03:29.966Z,55.50
2023-08-14T16:06:02.176Z,55.00
2023-08-14T16:08:29.817Z,55.70
2023-08-14T16:11:00.499Z,56.91
2023-08-14T16:13:28.241Z,57.75
2023-08-14T16:15:58.730Z,57.78
2023-08-14T16:18:28.908Z,58.96
2023-08-14T16:21:00.995Z,57.96
2023-08-14T16:23:28.378Z,56.60
2023-08-14T16:25:58.398Z,56.01
2023-08-14T16:28:25.823Z,56.15
2023-08-14T16:30:55.588Z,57.99
2023-08-14T16:33:23.235Z,59.40
2023-08-14T16:35:52.110Z,59.95
2023-08-14T16:38:19.608Z,58.09
2023-08-14T16:40:47.240Z,58.14
2023-08-14T16:43:14.768Z,57.40
2023-08-14T16:45:50.526Z,57.42
2023-08-14T16:48:17.973Z,57.10
2023-08-14T16:50:52.462Z,56.75
2023-08-14T16:53:20.043Z,56.80
2023-08-14T16:55:48.145Z,56.36
2023-08-14T16:58:16.323Z,56.14
2023-08-14T17:00:44.331Z,56.29
2023-08-14T17:03:12.268Z,56.28
2023-08-14T17:05:40.014Z,56.06
2023-08-14T17:08:08.550Z,56.04
2023-08-14T17:10:37.758Z,56.17
2023-08-14T17:13:06.000Z,57.45
2023-08-14T17:15:40.800Z,57.07
2023-08-14T17:18:08.698Z,56.36
2023-08-14T17:20:36.731Z,56.15
2023-08-14T17:23:10.743Z,56.73
2023-08-14T17:25:39.610Z,57.01
2023-08-14T17:28:07.573Z,57.93
2023-08-14T17:30:38.403Z,56.85
2023-08-14T17:33:08.755Z,56.48
2023-08-14T17:35:37.570Z,55.56
2023-08-14T17:38:05.200Z,54.37
2023-08-14T17:40:33.149Z,53.59
2023-08-14T17:43:01.047Z,53.88
2023-08-14T17:45:28.604Z,55.05
2023-08-14T17:47:57.334Z,54.01
2023-08-14T17:50:25.882Z,54.07
2023-08-14T17:52:54.189Z,51.87
2023-08-14T17:55:23.038Z,53.00
2023-08-14T17:57:50.889Z,51.63
2023-08-14T18:00:19.417Z,50.84
2023-08-14T18:02:47.219Z,50.76
2023-08-14T18:05:15.464Z,50.04
2023-08-14T18:07:45.121Z,50.66
2023-08-14T18:10:16.575Z,50.11
2023-08-14T18:12:44.594Z,49.90
2023-08-14T18:15:12.901Z,50.12
2023-08-14T18:17:41.751Z,51.35
2023-08-14T18:20:09.936Z,51.03
2023-08-14T18:22:38.275Z,50.61
2023-08-14T18:25:06.929Z,50.49
2023-08-14T18:27:35.491Z,50.28
2023-08-14T18:30:04.652Z,50.02
2023-08-14T18:32:32.739Z,49.80
2023-08-14T18:35:00.873Z,50.21
2023-08-14T18:37:31.296Z,49.40
2023-08-14T18:39:59.075Z,49.67
2023-08-14T18:42:27.292Z,49.34
2023-08-14T18:44:55.139Z,48.90
2023-08-14T18:47:23.309Z,48.90
2023-08-14T18:49:51.139Z,49.61
2023-08-14T18:52:21.481Z,50.09
2023-08-14T18:54:51.525Z,50.72
2023-08-14T18:57:21.782Z,52.30
2023-08-14T18:59:49.689Z,51.41
2023-08-14T19:02:18.815Z,52.63
2023-08-14T19:04:47.246Z,52.25
2023-08-14T19:07:15.313Z,52.74
2023-08-14T19:09:44.438Z,51.85
2023-08-14T19:12:12.692Z,51.86
2023-08-14T19:14:40.502Z,52.62
2023-08-14T19:17:08.392Z,51.97
2023-08-14T19:19:36.800Z,53.03
2023-08-14T19:22:04.784Z,52.58
2023-08-14T19:24:33.069Z,52.87
2023-08-14T19:27:04.294Z,53.78
2023-08-14T19:29:34.477Z,54.48
2023-08-14T19:32:02.453Z,54.35
2023-08-14T19:34:30.277Z,54.94
2023-08-14T19:36:58.075Z,54.93
2023-08-14T19:39:25.885Z,55.73
2023-08-14T19:41:53.502Z,55.99
2023-08-14T19:44:20.946Z,55.64
2023-08-14T19:46:49.044Z,57.56
2023-08-14T19:49:17.375Z,56.87
2023-08-14T19:51:45.211Z,56.73
2023-08-14T19:54:12.923Z,57.14
2023-08-14T19:56:41.584Z,57.52
2023-08-14T19:59:09.909Z,58.80
2023-08-14T20:01:39.887Z,58.00
2023-08-14T20:04:09.756Z,58.44
2023-08-14T20:06:38.368Z,58.74
2023-08-14T20:09:06.389Z,58.59
2023-08-14T20:11:36.252Z,58.93
2023-08-14T20:14:04.510Z,58.82
2023-08-14T20:16:32.589Z,59.39
2023-08-14T20:19:03.003Z,58.92
2023-08-14T20:21:32.862Z,59.21
2023-08-14T20:24:02.898Z,58.93
2023-08-14T20:26:30.362Z,59.22
2023-08-14T20:28:57.879Z,59.02
2023-08-14T20:31:25.463Z,59.07
2023-08-14T20:33:57.396Z,59.61
2023-08-14T20:36:29.044Z,59.00
2023-08-14T20:38:56.721Z,59.05
2023-08-14T20:41:25.526Z,59.69
2023-08-14T20:43:53.062Z,59.18
2023-08-14T20:46:20.539Z,59.73
2023-08-14T20:48:48.574Z,60.27
2023-08-14T20:51:17.627Z,60.58
2023-08-14T20:53:45.205Z,60.47
2023-08-14T20:56:12.796Z,60.35
2023-08-14T20:58:40.175Z,60.54
2023-08-14T21:01:07.797Z,60.36
2023-08-14T21:03:37.523Z,60.33
2023-08-14T21:06:05.238Z,60.38
2023-08-14T21:08:32.706Z,60.00
2023-08-14T21:11:00.834Z,59.89
2023-08-14T21:13:30.399Z,61.04
2023-08-14T21:15:59.246Z,60.06
2023-08-14T21:18:26.998Z,60.86
2023-08-14T21:20:54.485Z,61.29
2023-08-14T21:23:23.215Z,61.22
2023-08-14T21:25:50.727Z,61.85
2023-08-14T21:28:18.171Z,62.08
2023-08-14T21:30:45.909Z,61.87
2023-08-14T21:33:13.939Z,61.73
2023-08-14T21:35:41.596Z,62.22
2023-08-14T21:38:08.997Z,62.18
2023-08-14T21:40:40.275Z,61.98
2023-08-14T21:43:07.948Z,62.05
2023-08-14T21:45:35.466Z,61.65
2023-08-14T21:48:03.342Z,62.14
2023-08-14T21:50:30.930Z,62.21
2023-08-14T21:52:58.258Z,62.27
2023-08-14T21:55:25.922Z,62.49
2023-08-14T21:57:53.471Z,62.51
2023-08-14T22:00:21.029Z,61.86
2023-08-14T22:02:52.376Z,62.19
2023-08-14T22:05:19.831Z,62.35
2023-08-14T22:07:47.307Z,62.04
2023-08-14T22:10:14.837Z,62.17
2023-08-14T22:12:45.607Z,61.93
2023-08-14T22:15:13.530Z,62.94
2023-08-14T22:17:41.119Z,62.36
2023-08-14T22:20:11.188Z,62.49
2023-08-14T22:22:39.256Z,62.90
2023-08-14T22:25:10.329Z,63.08
2023-08-14T22:27:38.727Z,62.67
2023-08-14T22:30:06.692Z,62.41
2023-08-14T22:32:34.237Z,62.52
2023-08-14T22:35:01.759Z,61.48
2023-08-14T22:37:29.178Z,61.65
2023-08-14T22:39:57.890Z,61.41
2023-08-14T22:42:26.118Z,62.00
2023-08-14T22:44:53.691Z,62.10
2023-08-14T22:47:21.562Z,62.29
2023-08-14T22:49:49.321Z,61.71
2023-08-14T22:52:16.914Z,63.04
2023-08-14T22:54:46.708Z,61.98
2023-08-14T22:57:15.451Z,61.96
2023-08-14T22:59:42.839Z,61.27
2023-08-14T23:02:10.545Z,61.57
2023-08-14T23:04:38.091Z,61.53
2023-08-14T23:07:05.823Z,61.34
2023-08-14T23:09:33.515Z,61.56
2023-08-14T23:12:01.993Z,61.60
2023-08-14T23:14:29.397Z,61.54
2023-08-14T23:16:56.926Z,61.57
2023-08-14T23:19:24.485Z,61.96
2023-08-14T23:21:52.545Z,61.70
2023-08-14T23:24:21.191Z,62.30
2023-08-14T23:26:48.620Z,61.78
2023-08-14T23:29:16.059Z,62.38
2023-08-14T23:31:43.624Z,62.41
2023-08-14T23:34:11.149Z,62.56
2023-08-14T23:36:38.883Z,62.52
2023-08-14T23:39:06.723Z,61.83
2023-08-14T23:41:34.334Z,61.74
2023-08-14T23:44:02.276Z,62.51
2023-08-14T23:46:30.021Z,62.67
2023-08-14T23:49:00.528Z,62.60
2023-08-14T23:51:28.098Z,61.94
2023-08-14T23:53:58.459Z,61.93
2023-08-14T23:56:26.104Z,61.82
2023-08-14T23:58:54.909Z,61.60
